Decoded Metar for EGXC (CONINGSBY in ENGLAND) (IATA:QCY) | Meteo·Mobile Aviation Weather
aviador You're here:

EGXC Decoded Metar

CONINGSBY in ENGLAND
Report Time2019-01-18 10:50:00
UTC Time2019-01-18 11:36:47
Flight Rules vfr VFR
Wind140° at 06 kt
W.Decomp.*RWY 07: 2.0 kt HW 5.7 kt RCW
W.Rank140° ranks 35
Current wind is above 140° avg. (5.9)
Visibility9999 m
Phenomena:N/A
Clouds:N/A
Expected CloudBase > 400 ft AGL from Temp-Dew spread
CeilingNone
Temp00°C (ISA -15)
Dew Point-1°C (93% RH)
AAT-4.3°C
QNH1017 hPa
Density Alt-1,864 ft
Elevation23 ft
Report Wrong Elevation
Raw Report
EGXC 181050Z 14006KT CAVOK 00/M01 Q1017 BLU NOSIG=

Extra information for EGXC:More info

Metar Taf Metar & Taf Last 4 Metars F.Rules Stats Wind Profile Meteogram Temp Stats Airport Information Weather charts Add Link Nearby VenuesMetar ALERT Operation Metar Decoded Social comments